sensor_id;sensor_type;location;lat;lon;timestamp;P1;durP1;ratioP1;P2;durP2;ratioP2
82412;SDS011;72056;51.980;15.436;2023-12-20T00:00:22;6.55;;;2.80;;
82412;SDS011;72056;51.980;15.436;2023-12-20T00:03:09;7.47;;;3.30;;
82412;SDS011;72056;51.980;15.436;2023-12-20T00:05:37;8.05;;;3.40;;
82412;SDS011;72056;51.980;15.436;2023-12-20T00:08:07;6.50;;;2.90;;
82412;SDS011;72056;51.980;15.436;2023-12-20T00:10:33;8.15;;;3.47;;
82412;SDS011;72056;51.980;15.436;2023-12-20T00:13:00;6.85;;;3.20;;
82412;SDS011;72056;51.980;15.436;2023-12-20T00:15:27;7.95;;;3.10;;
82412;SDS011;72056;51.980;15.436;2023-12-20T00:17:58;6.47;;;2.80;;
82412;SDS011;72056;51.980;15.436;2023-12-20T00:20:25;7.85;;;3.20;;
82412;SDS011;72056;51.980;15.436;2023-12-20T00:22:52;6.80;;;3.22;;
82412;SDS011;72056;51.980;15.436;2023-12-20T00:25:19;7.22;;;3.35;;
82412;SDS011;72056;51.980;15.436;2023-12-20T00:27:46;6.65;;;2.95;;
82412;SDS011;72056;51.980;15.436;2023-12-20T00:30:14;6.68;;;3.10;;
82412;SDS011;72056;51.980;15.436;2023-12-20T00:32:40;6.90;;;3.30;;
82412;SDS011;72056;51.980;15.436;2023-12-20T00:35:13;7.30;;;3.20;;
82412;SDS011;72056;51.980;15.436;2023-12-20T00:37:40;8.07;;;3.58;;
82412;SDS011;72056;51.980;15.436;2023-12-20T00:40:07;7.03;;;3.10;;
82412;SDS011;72056;51.980;15.436;2023-12-20T00:42:37;7.03;;;3.08;;
82412;SDS011;72056;51.980;15.436;2023-12-20T00:45:04;7.20;;;3.00;;
82412;SDS011;72056;51.980;15.436;2023-12-20T00:47:33;6.72;;;2.95;;
82412;SDS011;72056;51.980;15.436;2023-12-20T00:50:00;7.95;;;2.97;;
82412;SDS011;72056;51.980;15.436;2023-12-20T00:52:27;7.00;;;2.83;;
82412;SDS011;72056;51.980;15.436;2023-12-20T00:54:54;6.80;;;2.90;;
82412;SDS011;72056;51.980;15.436;2023-12-20T00:57:26;7.05;;;3.10;;
82412;SDS011;72056;51.980;15.436;2023-12-20T00:59:57;6.28;;;3.00;;
82412;SDS011;72056;51.980;15.436;2023-12-20T01:02:24;6.65;;;2.90;;
82412;SDS011;72056;51.980;15.436;2023-12-20T01:04:51;7.95;;;3.15;;
82412;SDS011;72056;51.980;15.436;2023-12-20T01:07:18;6.63;;;3.13;;
82412;SDS011;72056;51.980;15.436;2023-12-20T01:09:45;6.43;;;2.70;;
82412;SDS011;72056;51.980;15.436;2023-12-20T01:12:16;6.38;;;2.78;;
82412;SDS011;72056;51.980;15.436;2023-12-20T01:14:42;6.65;;;2.80;;
82412;SDS011;72056;51.980;15.436;2023-12-20T01:17:09;6.65;;;2.95;;
82412;SDS011;72056;51.980;15.436;2023-12-20T01:19:41;7.60;;;2.92;;
82412;SDS011;72056;51.980;15.436;2023-12-20T01:22:08;6.18;;;2.90;;
82412;SDS011;72056;51.980;15.436;2023-12-20T01:24:35;6.50;;;2.90;;
82412;SDS011;72056;51.980;15.436;2023-12-20T01:27:04;5.93;;;2.53;;
82412;SDS011;72056;51.980;15.436;2023-12-20T01:29:30;6.75;;;2.70;;
82412;SDS011;72056;51.980;15.436;2023-12-20T01:31:57;7.82;;;2.92;;
82412;SDS011;72056;51.980;15.436;2023-12-20T01:34:25;6.95;;;2.83;;
82412;SDS011;72056;51.980;15.436;2023-12-20T01:36:52;6.50;;;2.60;;
82412;SDS011;72056;51.980;15.436;2023-12-20T01:39:20;6.50;;;2.80;;
82412;SDS011;72056;51.980;15.436;2023-12-20T01:41:49;6.03;;;2.47;;
82412;SDS011;72056;51.980;15.436;2023-12-20T01:44:17;6.43;;;2.80;;
82412;SDS011;72056;51.980;15.436;2023-12-20T01:46:44;5.30;;;2.13;;
82412;SDS011;72056;51.980;15.436;2023-12-20T01:49:13;6.90;;;2.30;;
82412;SDS011;72056;51.980;15.436;2023-12-20T01:51:42;5.45;;;2.25;;
82412;SDS011;72056;51.980;15.436;2023-12-20T01:54:10;5.60;;;2.35;;
82412;SDS011;72056;51.980;15.436;2023-12-20T01:56:37;6.22;;;2.20;;
82412;SDS011;72056;51.980;15.436;2023-12-20T01:59:05;6.30;;;2.55;;
82412;SDS011;72056;51.980;15.436;2023-12-20T02:01:33;6.82;;;2.72;;
82412;SDS011;72056;51.980;15.436;2023-12-20T02:04:00;5.35;;;2.35;;
82412;SDS011;72056;51.980;15.436;2023-12-20T02:06:29;5.20;;;2.20;;
82412;SDS011;72056;51.980;15.436;2023-12-20T02:08:59;5.45;;;2.50;;
82412;SDS011;72056;51.980;15.436;2023-12-20T02:11:27;5.55;;;2.15;;
82412;SDS011;72056;51.980;15.436;2023-12-20T02:13:54;5.13;;;2.08;;
82412;SDS011;72056;51.980;15.436;2023-12-20T02:16:22;5.18;;;2.13;;
82412;SDS011;72056;51.980;15.436;2023-12-20T02:18:49;6.43;;;2.25;;
82412;SDS011;72056;51.980;15.436;2023-12-20T02:21:16;6.43;;;2.22;;
82412;SDS011;72056;51.980;15.436;2023-12-20T02:23:47;6.30;;;2.38;;
82412;SDS011;72056;51.980;15.436;2023-12-20T02:26:14;5.55;;;2.30;;
82412;SDS011;72056;51.980;15.436;2023-12-20T02:28:41;5.95;;;2.10;;
82412;SDS011;72056;51.980;15.436;2023-12-20T02:31:08;5.78;;;2.17;;
82412;SDS011;72056;51.980;15.436;2023-12-20T02:33:39;5.25;;;1.90;;
82412;SDS011;72056;51.980;15.436;2023-12-20T02:36:08;6.05;;;2.30;;
82412;SDS011;72056;51.980;15.436;2023-12-20T02:38:36;6.60;;;2.22;;
82412;SDS011;72056;51.980;15.436;2023-12-20T02:41:07;5.03;;;2.03;;
82412;SDS011;72056;51.980;15.436;2023-12-20T02:43:34;6.13;;;2.20;;
82412;SDS011;72056;51.980;15.436;2023-12-20T02:46:01;4.10;;;1.73;;
82412;SDS011;72056;51.980;15.436;2023-12-20T02:48:28;4.78;;;1.65;;
82412;SDS011;72056;51.980;15.436;2023-12-20T02:50:59;5.20;;;1.88;;
82412;SDS011;72056;51.980;15.436;2023-12-20T02:53:28;4.68;;;1.85;;
82412;SDS011;72056;51.980;15.436;2023-12-20T02:55:59;4.65;;;1.80;;
82412;SDS011;72056;51.980;15.436;2023-12-20T02:58:25;4.53;;;1.73;;
82412;SDS011;72056;51.980;15.436;2023-12-20T03:00:54;5.05;;;2.20;;
82412;SDS011;72056;51.980;15.436;2023-12-20T03:03:21;5.03;;;1.98;;
82412;SDS011;72056;51.980;15.436;2023-12-20T03:05:48;5.55;;;1.83;;
82412;SDS011;72056;51.980;15.436;2023-12-20T03:08:19;4.40;;;1.52;;
82412;SDS011;72056;51.980;15.436;2023-12-20T03:10:51;4.90;;;2.03;;
82412;SDS011;72056;51.980;15.436;2023-12-20T03:13:19;5.18;;;1.88;;
82412;SDS011;72056;51.980;15.436;2023-12-20T03:15:47;4.22;;;1.65;;
82412;SDS011;72056;51.980;15.436;2023-12-20T03:18:15;4.70;;;1.58;;
82412;SDS011;72056;51.980;15.436;2023-12-20T03:20:43;4.90;;;1.55;;
82412;SDS011;72056;51.980;15.436;2023-12-20T03:23:10;4.72;;;1.45;;
82412;SDS011;72056;51.980;15.436;2023-12-20T03:25:38;4.63;;;1.63;;
82412;SDS011;72056;51.980;15.436;2023-12-20T03:28:05;4.82;;;1.73;;
82412;SDS011;72056;51.980;15.436;2023-12-20T03:30:32;4.55;;;1.80;;
82412;SDS011;72056;51.980;15.436;2023-12-20T03:32:59;4.20;;;1.60;;
82412;SDS011;72056;51.980;15.436;2023-12-20T03:35:28;4.93;;;1.70;;
82412;SDS011;72056;51.980;15.436;2023-12-20T03:37:55;4.65;;;1.65;;
82412;SDS011;72056;51.980;15.436;2023-12-20T03:40:23;4.72;;;1.60;;
82412;SDS011;72056;51.980;15.436;2023-12-20T03:42:50;4.57;;;1.73;;
82412;SDS011;72056;51.980;15.436;2023-12-20T03:45:17;4.50;;;1.63;;
82412;SDS011;72056;51.980;15.436;2023-12-20T03:47:47;4.38;;;1.50;;
82412;SDS011;72056;51.980;15.436;2023-12-20T03:50:22;3.63;;;1.38;;
82412;SDS011;72056;51.980;15.436;2023-12-20T03:52:49;3.80;;;1.35;;
82412;SDS011;72056;51.980;15.436;2023-12-20T03:55:15;4.53;;;1.55;;
82412;SDS011;72056;51.980;15.436;2023-12-20T03:57:42;2.92;;;1.35;;
82412;SDS011;72056;51.980;15.436;2023-12-20T04:00:13;4.18;;;1.67;;
82412;SDS011;72056;51.980;15.436;2023-12-20T04:02:42;4.10;;;1.50;;
82412;SDS011;72056;51.980;15.436;2023-12-20T04:05:09;3.75;;;1.38;;
82412;SDS011;72056;51.980;15.436;2023-12-20T04:07:36;3.28;;;1.17;;
82412;SDS011;72056;51.980;15.436;2023-12-20T04:10:03;3.40;;;1.33;;
82412;SDS011;72056;51.980;15.436;2023-12-20T04:12:29;3.85;;;1.42;;
82412;SDS011;72056;51.980;15.436;2023-12-20T04:14:56;3.67;;;1.40;;
82412;SDS011;72056;51.980;15.436;2023-12-20T04:17:23;3.15;;;1.30;;
82412;SDS011;72056;51.980;15.436;2023-12-20T04:19:50;3.78;;;1.23;;
82412;SDS011;72056;51.980;15.436;2023-12-20T04:22:18;3.70;;;1.30;;
82412;SDS011;72056;51.980;15.436;2023-12-20T04:24:44;4.85;;;1.30;;
82412;SDS011;72056;51.980;15.436;2023-12-20T04:27:12;3.50;;;1.30;;
82412;SDS011;72056;51.980;15.436;2023-12-20T04:29:40;3.22;;;1.30;;
82412;SDS011;72056;51.980;15.436;2023-12-20T04:32:07;3.63;;;1.30;;
82412;SDS011;72056;51.980;15.436;2023-12-20T04:34:38;3.20;;;1.25;;
82412;SDS011;72056;51.980;15.436;2023-12-20T04:37:04;3.92;;;1.38;;
82412;SDS011;72056;51.980;15.436;2023-12-20T04:39:32;3.35;;;1.20;;
82412;SDS011;72056;51.980;15.436;2023-12-20T04:42:01;4.35;;;1.40;;
82412;SDS011;72056;51.980;15.436;2023-12-20T04:44:28;3.40;;;1.10;;
82412;SDS011;72056;51.980;15.436;2023-12-20T04:46:55;3.47;;;1.20;;
82412;SDS011;72056;51.980;15.436;2023-12-20T04:49:27;3.53;;;1.30;;
82412;SDS011;72056;51.980;15.436;2023-12-20T04:51:58;3.35;;;1.20;;
82412;SDS011;72056;51.980;15.436;2023-12-20T04:54:25;3.25;;;1.10;;
82412;SDS011;72056;51.980;15.436;2023-12-20T04:56:53;3.70;;;1.38;;
82412;SDS011;72056;51.980;15.436;2023-12-20T04:59:20;3.60;;;1.30;;
82412;SDS011;72056;51.980;15.436;2023-12-20T05:04:18;3.63;;;1.08;;
82412;SDS011;72056;51.980;15.436;2023-12-20T05:06:49;2.90;;;1.10;;
82412;SDS011;72056;51.980;15.436;2023-12-20T05:09:17;3.45;;;1.30;;
82412;SDS011;72056;51.980;15.436;2023-12-20T05:11:43;2.78;;;1.10;;
82412;SDS011;72056;51.980;15.436;2023-12-20T05:14:12;2.35;;;1.05;;
82412;SDS011;72056;51.980;15.436;2023-12-20T05:16:38;3.08;;;1.00;;
82412;SDS011;72056;51.980;15.436;2023-12-20T05:19:07;2.83;;;1.10;;
82412;SDS011;72056;51.980;15.436;2023-12-20T05:21:35;3.13;;;1.05;;
82412;SDS011;72056;51.980;15.436;2023-12-20T05:24:02;3.13;;;1.20;;
82412;SDS011;72056;51.980;15.436;2023-12-20T05:26:30;3.67;;;1.20;;
82412;SDS011;72056;51.980;15.436;2023-12-20T05:29:02;2.92;;;0.90;;
82412;SDS011;72056;51.980;15.436;2023-12-20T05:31:30;2.75;;;1.05;;
82412;SDS011;72056;51.980;15.436;2023-12-20T05:33:58;3.28;;;1.10;;
82412;SDS011;72056;51.980;15.436;2023-12-20T05:36:26;3.38;;;0.90;;
82412;SDS011;72056;51.980;15.436;2023-12-20T05:38:54;2.88;;;1.10;;
82412;SDS011;72056;51.980;15.436;2023-12-20T05:41:20;3.35;;;1.10;;
82412;SDS011;72056;51.980;15.436;2023-12-20T05:43:47;3.72;;;1.30;;
82412;SDS011;72056;51.980;15.436;2023-12-20T05:46:16;4.07;;;1.38;;
82412;SDS011;72056;51.980;15.436;2023-12-20T05:48:45;4.07;;;1.40;;
82412;SDS011;72056;51.980;15.436;2023-12-20T05:51:12;3.78;;;1.30;;
82412;SDS011;72056;51.980;15.436;2023-12-20T05:53:39;3.42;;;1.33;;
82412;SDS011;72056;51.980;15.436;2023-12-20T05:56:10;3.55;;;1.27;;
82412;SDS011;72056;51.980;15.436;2023-12-20T05:58:38;3.00;;;1.20;;
82412;SDS011;72056;51.980;15.436;2023-12-20T06:01:05;3.10;;;1.08;;
82412;SDS011;72056;51.980;15.436;2023-12-20T06:03:34;3.53;;;1.30;;
82412;SDS011;72056;51.980;15.436;2023-12-20T06:06:07;3.50;;;1.20;;
82412;SDS011;72056;51.980;15.436;2023-12-20T06:08:53;3.30;;;1.20;;
82412;SDS011;72056;51.980;15.436;2023-12-20T06:11:21;4.35;;;1.23;;
82412;SDS011;72056;51.980;15.436;2023-12-20T06:13:52;4.53;;;1.40;;
82412;SDS011;72056;51.980;15.436;2023-12-20T06:16:19;2.95;;;1.25;;
82412;SDS011;72056;51.980;15.436;2023-12-20T06:18:46;3.00;;;1.10;;
82412;SDS011;72056;51.980;15.436;2023-12-20T06:21:18;3.70;;;1.33;;
82412;SDS011;72056;51.980;15.436;2023-12-20T06:23:46;3.13;;;1.15;;
82412;SDS011;72056;51.980;15.436;2023-12-20T06:26:14;4.38;;;1.27;;
82412;SDS011;72056;51.980;15.436;2023-12-20T06:28:40;5.47;;;1.73;;
82412;SDS011;72056;51.980;15.436;2023-12-20T06:31:07;4.65;;;1.70;;
82412;SDS011;72056;51.980;15.436;2023-12-20T06:33:34;4.72;;;1.55;;
82412;SDS011;72056;51.980;15.436;2023-12-20T06:36:01;5.93;;;1.40;;
82412;SDS011;72056;51.980;15.436;2023-12-20T06:38:28;4.35;;;1.40;;
82412;SDS011;72056;51.980;15.436;2023-12-20T06:40:59;4.05;;;1.40;;
82412;SDS011;72056;51.980;15.436;2023-12-20T06:43:28;4.10;;;1.52;;
82412;SDS011;72056;51.980;15.436;2023-12-20T06:46:02;5.28;;;1.63;;
82412;SDS011;72056;51.980;15.436;2023-12-20T06:48:28;4.35;;;1.50;;
82412;SDS011;72056;51.980;15.436;2023-12-20T06:50:56;4.03;;;1.17;;
82412;SDS011;72056;51.980;15.436;2023-12-20T06:53:25;4.10;;;1.38;;
82412;SDS011;72056;51.980;15.436;2023-12-20T06:55:51;3.58;;;1.25;;
82412;SDS011;72056;51.980;15.436;2023-12-20T06:58:22;4.18;;;1.60;;
82412;SDS011;72056;51.980;15.436;2023-12-20T07:03:24;4.30;;;1.48;;
82412;SDS011;72056;51.980;15.436;2023-12-20T07:05:51;4.85;;;1.70;;
82412;SDS011;72056;51.980;15.436;2023-12-20T07:08:18;5.72;;;1.80;;
82412;SDS011;72056;51.980;15.436;2023-12-20T07:10:49;5.65;;;1.92;;
82412;SDS011;72056;51.980;15.436;2023-12-20T07:13:21;6.53;;;2.00;;
82412;SDS011;72056;51.980;15.436;2023-12-20T07:15:48;4.53;;;1.85;;
82412;SDS011;72056;51.980;15.436;2023-12-20T07:18:17;6.38;;;2.00;;
82412;SDS011;72056;51.980;15.436;2023-12-20T07:20:45;5.97;;;1.83;;
82412;SDS011;72056;51.980;15.436;2023-12-20T07:23:17;10.13;;;2.42;;
82412;SDS011;72056;51.980;15.436;2023-12-20T07:25:48;7.38;;;2.13;;
82412;SDS011;72056;51.980;15.436;2023-12-20T07:28:16;5.65;;;1.80;;
82412;SDS011;72056;51.980;15.436;2023-12-20T07:30:51;6.65;;;1.70;;
82412;SDS011;72056;51.980;15.436;2023-12-20T07:33:20;5.97;;;1.98;;
82412;SDS011;72056;51.980;15.436;2023-12-20T07:35:46;4.63;;;1.67;;
82412;SDS011;72056;51.980;15.436;2023-12-20T07:38:14;6.32;;;2.10;;
82412;SDS011;72056;51.980;15.436;2023-12-20T07:40:42;5.00;;;1.85;;
82412;SDS011;72056;51.980;15.436;2023-12-20T07:43:09;6.85;;;1.90;;
82412;SDS011;72056;51.980;15.436;2023-12-20T07:45:35;8.60;;;1.83;;
82412;SDS011;72056;51.980;15.436;2023-12-20T07:48:07;5.72;;;1.75;;
82412;SDS011;72056;51.980;15.436;2023-12-20T07:50:34;7.32;;;2.00;;
82412;SDS011;72056;51.980;15.436;2023-12-20T07:53:02;6.95;;;2.05;;
82412;SDS011;72056;51.980;15.436;2023-12-20T07:55:30;5.75;;;1.88;;
82412;SDS011;72056;51.980;15.436;2023-12-20T07:57:59;6.90;;;1.60;;
82412;SDS011;72056;51.980;15.436;2023-12-20T08:00:26;7.57;;;1.80;;
82412;SDS011;72056;51.980;15.436;2023-12-20T08:02:54;7.00;;;2.00;;
82412;SDS011;72056;51.980;15.436;2023-12-20T08:05:25;5.97;;;1.80;;
82412;SDS011;72056;51.980;15.436;2023-12-20T08:07:53;7.40;;;1.98;;
82412;SDS011;72056;51.980;15.436;2023-12-20T08:10:20;6.00;;;2.13;;
82412;SDS011;72056;51.980;15.436;2023-12-20T08:12:51;6.13;;;2.15;;
82412;SDS011;72056;51.980;15.436;2023-12-20T08:15:17;6.55;;;1.85;;
82412;SDS011;72056;51.980;15.436;2023-12-20T08:17:46;6.55;;;2.10;;
82412;SDS011;72056;51.980;15.436;2023-12-20T08:20:13;8.05;;;2.60;;
82412;SDS011;72056;51.980;15.436;2023-12-20T08:22:40;6.30;;;2.20;;
82412;SDS011;72056;51.980;15.436;2023-12-20T08:25:07;6.65;;;2.00;;
82412;SDS011;72056;51.980;15.436;2023-12-20T08:27:39;6.65;;;2.42;;
82412;SDS011;72056;51.980;15.436;2023-12-20T08:30:08;6.30;;;2.33;;
82412;SDS011;72056;51.980;15.436;2023-12-20T08:32:35;5.65;;;2.17;;
82412;SDS011;72056;51.980;15.436;2023-12-20T08:35:01;7.20;;;2.40;;
82412;SDS011;72056;51.980;15.436;2023-12-20T08:37:29;6.95;;;1.83;;
82412;SDS011;72056;51.980;15.436;2023-12-20T08:39:56;6.03;;;2.00;;
82412;SDS011;72056;51.980;15.436;2023-12-20T08:42:23;5.53;;;1.85;;
82412;SDS011;72056;51.980;15.436;2023-12-20T08:44:57;5.28;;;1.70;;
82412;SDS011;72056;51.980;15.436;2023-12-20T08:47:25;5.75;;;1.90;;
82412;SDS011;72056;51.980;15.436;2023-12-20T08:49:51;7.85;;;1.95;;
82412;SDS011;72056;51.980;15.436;2023-12-20T08:52:22;5.20;;;1.92;;
82412;SDS011;72056;51.980;15.436;2023-12-20T08:54:50;7.78;;;1.60;;
82412;SDS011;72056;51.980;15.436;2023-12-20T08:57:20;5.93;;;1.80;;
82412;SDS011;72056;51.980;15.436;2023-12-20T08:59:47;6.32;;;1.60;;
82412;SDS011;72056;51.980;15.436;2023-12-20T09:02:14;5.82;;;1.60;;
82412;SDS011;72056;51.980;15.436;2023-12-20T09:04:44;6.03;;;1.30;;
82412;SDS011;72056;51.980;15.436;2023-12-20T09:09:48;4.82;;;1.30;;
82412;SDS011;72056;51.980;15.436;2023-12-20T09:12:17;8.27;;;1.30;;
82412;SDS011;72056;51.980;15.436;2023-12-20T09:14:48;3.78;;;1.30;;
82412;SDS011;72056;51.980;15.436;2023-12-20T09:17:16;4.35;;;1.25;;
82412;SDS011;72056;51.980;15.436;2023-12-20T09:19:44;7.85;;;1.65;;
82412;SDS011;72056;51.980;15.436;2023-12-20T09:22:12;5.05;;;1.08;;
82412;SDS011;72056;51.980;15.436;2023-12-20T09:24:38;4.28;;;1.02;;
82412;SDS011;72056;51.980;15.436;2023-12-20T09:27:06;4.85;;;1.35;;
82412;SDS011;72056;51.980;15.436;2023-12-20T09:29:33;8.80;;;1.40;;
82412;SDS011;72056;51.980;15.436;2023-12-20T09:32:00;3.78;;;1.00;;
82412;SDS011;72056;51.980;15.436;2023-12-20T09:34:27;8.55;;;1.30;;
82412;SDS011;72056;51.980;15.436;2023-12-20T09:36:54;2.75;;;1.10;;
82412;SDS011;72056;51.980;15.436;2023-12-20T09:39:20;8.48;;;1.58;;
82412;SDS011;72056;51.980;15.436;2023-12-20T09:42:05;12.05;;;1.90;;
82412;SDS011;72056;51.980;15.436;2023-12-20T09:44:34;8.15;;;1.55;;
82412;SDS011;72056;51.980;15.436;2023-12-20T09:47:04;5.90;;;1.80;;
82412;SDS011;72056;51.980;15.436;2023-12-20T09:49:50;6.18;;;1.67;;
82412;SDS011;72056;51.980;15.436;2023-12-20T09:52:18;4.88;;;1.75;;
82412;SDS011;72056;51.980;15.436;2023-12-20T09:54:45;5.95;;;1.45;;
82412;SDS011;72056;51.980;15.436;2023-12-20T09:57:16;7.43;;;1.70;;
82412;SDS011;72056;51.980;15.436;2023-12-20T09:59:44;5.90;;;1.73;;
82412;SDS011;72056;51.980;15.436;2023-12-20T10:02:12;6.30;;;1.50;;
82412;SDS011;72056;51.980;15.436;2023-12-20T10:04:47;8.35;;;1.80;;
82412;SDS011;72056;51.980;15.436;2023-12-20T10:07:17;7.30;;;1.80;;
82412;SDS011;72056;51.980;15.436;2023-12-20T10:09:44;5.80;;;1.58;;
82412;SDS011;72056;51.980;15.436;2023-12-20T10:12:13;7.95;;;1.80;;
82412;SDS011;72056;51.980;15.436;2023-12-20T10:14:40;4.63;;;1.50;;
82412;SDS011;72056;51.980;15.436;2023-12-20T10:17:08;5.90;;;1.88;;
82412;SDS011;72056;51.980;15.436;2023-12-20T10:19:36;5.68;;;1.40;;
82412;SDS011;72056;51.980;15.436;2023-12-20T10:22:04;5.18;;;1.40;;
82412;SDS011;72056;51.980;15.436;2023-12-20T10:24:30;10.40;;;1.77;;
82412;SDS011;72056;51.980;15.436;2023-12-20T10:27:03;7.50;;;1.90;;
82412;SDS011;72056;51.980;15.436;2023-12-20T10:29:33;5.45;;;1.30;;
82412;SDS011;72056;51.980;15.436;2023-12-20T10:32:22;8.07;;;2.05;;
82412;SDS011;72056;51.980;15.436;2023-12-20T10:34:53;6.18;;;1.40;;
82412;SDS011;72056;51.980;15.436;2023-12-20T10:37:25;8.52;;;1.55;;
82412;SDS011;72056;51.980;15.436;2023-12-20T10:39:52;6.05;;;1.60;;
82412;SDS011;72056;51.980;15.436;2023-12-20T10:42:24;5.68;;;1.83;;
82412;SDS011;72056;51.980;15.436;2023-12-20T10:44:53;4.70;;;1.42;;
82412;SDS011;72056;51.980;15.436;2023-12-20T10:47:20;5.47;;;1.52;;
82412;SDS011;72056;51.980;15.436;2023-12-20T10:49:47;5.18;;;1.48;;
82412;SDS011;72056;51.980;15.436;2023-12-20T10:52:14;7.25;;;1.50;;
82412;SDS011;72056;51.980;15.436;2023-12-20T10:54:48;6.78;;;2.13;;
82412;SDS011;72056;51.980;15.436;2023-12-20T10:57:18;6.55;;;1.80;;
82412;SDS011;72056;51.980;15.436;2023-12-20T10:59:46;7.47;;;1.50;;
82412;SDS011;72056;51.980;15.436;2023-12-20T11:02:18;7.28;;;1.73;;
82412;SDS011;72056;51.980;15.436;2023-12-20T11:04:59;7.35;;;1.70;;
82412;SDS011;72056;51.980;15.436;2023-12-20T11:07:52;6.10;;;1.40;;
82412;SDS011;72056;51.980;15.436;2023-12-20T11:10:31;6.72;;;1.50;;
82412;SDS011;72056;51.980;15.436;2023-12-20T11:13:09;7.10;;;1.67;;
82412;SDS011;72056;51.980;15.436;2023-12-20T11:15:43;5.13;;;1.67;;
82412;SDS011;72056;51.980;15.436;2023-12-20T11:18:10;5.10;;;1.40;;
82412;SDS011;72056;51.980;15.436;2023-12-20T11:20:41;5.38;;;1.20;;
82412;SDS011;72056;51.980;15.436;2023-12-20T11:23:09;9.15;;;1.60;;
82412;SDS011;72056;51.980;15.436;2023-12-20T11:25:54;6.03;;;1.27;;
82412;SDS011;72056;51.980;15.436;2023-12-20T11:28:30;5.05;;;1.35;;
82412;SDS011;72056;51.980;15.436;2023-12-20T11:30:58;5.60;;;1.60;;
82412;SDS011;72056;51.980;15.436;2023-12-20T11:33:29;4.03;;;1.33;;
82412;SDS011;72056;51.980;15.436;2023-12-20T11:36:03;6.07;;;1.48;;
82412;SDS011;72056;51.980;15.436;2023-12-20T11:38:57;5.68;;;1.38;;
82412;SDS011;72056;51.980;15.436;2023-12-20T11:41:25;7.32;;;1.40;;
82412;SDS011;72056;51.980;15.436;2023-12-20T11:43:53;5.03;;;1.27;;
82412;SDS011;72056;51.980;15.436;2023-12-20T11:46:24;4.80;;;1.67;;
82412;SDS011;72056;51.980;15.436;2023-12-20T11:48:51;8.20;;;1.40;;
82412;SDS011;72056;51.980;15.436;2023-12-20T11:51:19;2.97;;;1.10;;
82412;SDS011;72056;51.980;15.436;2023-12-20T11:53:50;5.55;;;1.65;;
82412;SDS011;72056;51.980;15.436;2023-12-20T11:56:19;4.72;;;1.00;;
82412;SDS011;72056;51.980;15.436;2023-12-20T11:58:46;4.60;;;1.20;;
82412;SDS011;72056;51.980;15.436;2023-12-20T12:01:14;5.45;;;1.23;;
82412;SDS011;72056;51.980;15.436;2023-12-20T12:03:41;3.72;;;1.30;;
82412;SDS011;72056;51.980;15.436;2023-12-20T12:06:08;5.13;;;1.33;;
82412;SDS011;72056;51.980;15.436;2023-12-20T12:08:40;6.50;;;1.00;;
82412;SDS011;72056;51.980;15.436;2023-12-20T12:11:11;4.45;;;1.20;;
82412;SDS011;72056;51.980;15.436;2023-12-20T12:13:39;4.60;;;1.13;;
82412;SDS011;72056;51.980;15.436;2023-12-20T12:16:05;4.88;;;1.30;;
82412;SDS011;72056;51.980;15.436;2023-12-20T12:18:33;2.67;;;0.98;;
82412;SDS011;72056;51.980;15.436;2023-12-20T12:21:00;5.22;;;1.20;;
82412;SDS011;72056;51.980;15.436;2023-12-20T12:23:29;3.80;;;0.95;;
82412;SDS011;72056;51.980;15.436;2023-12-20T12:26:03;4.85;;;1.38;;
82412;SDS011;72056;51.980;15.436;2023-12-20T12:28:30;5.70;;;1.50;;
82412;SDS011;72056;51.980;15.436;2023-12-20T12:30:58;6.70;;;1.40;;
82412;SDS011;72056;51.980;15.436;2023-12-20T12:33:26;5.53;;;1.20;;
82412;SDS011;72056;51.980;15.436;2023-12-20T12:35:54;6.03;;;0.90;;
82412;SDS011;72056;51.980;15.436;2023-12-20T12:38:21;6.65;;;1.30;;
82412;SDS011;72056;51.980;15.436;2023-12-20T12:40:48;4.60;;;1.23;;
82412;SDS011;72056;51.980;15.436;2023-12-20T12:43:16;3.80;;;1.30;;
82412;SDS011;72056;51.980;15.436;2023-12-20T12:45:43;4.35;;;1.15;;
82412;SDS011;72056;51.980;15.436;2023-12-20T12:48:10;5.32;;;0.93;;
82412;SDS011;72056;51.980;15.436;2023-12-20T12:50:38;3.72;;;1.10;;
82412;SDS011;72056;51.980;15.436;2023-12-20T12:53:05;5.88;;;1.10;;
82412;SDS011;72056;51.980;15.436;2023-12-20T12:55:32;6.70;;;1.33;;
82412;SDS011;72056;51.980;15.436;2023-12-20T12:57:59;6.45;;;1.00;;
82412;SDS011;72056;51.980;15.436;2023-12-20T13:00:26;6.70;;;1.15;;
82412;SDS011;72056;51.980;15.436;2023-12-20T13:02:54;6.20;;;1.00;;
82412;SDS011;72056;51.980;15.436;2023-12-20T13:05:26;5.97;;;1.20;;
82412;SDS011;72056;51.980;15.436;2023-12-20T13:07:54;5.93;;;1.27;;
82412;SDS011;72056;51.980;15.436;2023-12-20T13:10:21;5.03;;;1.00;;
82412;SDS011;72056;51.980;15.436;2023-12-20T13:12:50;7.18;;;1.60;;
82412;SDS011;72056;51.980;15.436;2023-12-20T13:15:17;8.05;;;1.17;;
82412;SDS011;72056;51.980;15.436;2023-12-20T13:17:44;3.63;;;1.10;;
82412;SDS011;72056;51.980;15.436;2023-12-20T13:20:13;5.72;;;1.10;;
82412;SDS011;72056;51.980;15.436;2023-12-20T13:22:40;6.03;;;1.20;;
82412;SDS011;72056;51.980;15.436;2023-12-20T13:25:08;5.50;;;1.35;;
82412;SDS011;72056;51.980;15.436;2023-12-20T13:27:35;3.92;;;0.90;;
82412;SDS011;72056;51.980;15.436;2023-12-20T13:30:06;8.77;;;1.20;;
82412;SDS011;72056;51.980;15.436;2023-12-20T13:32:36;3.40;;;1.15;;
82412;SDS011;72056;51.980;15.436;2023-12-20T13:35:07;4.25;;;0.93;;
82412;SDS011;72056;51.980;15.436;2023-12-20T13:37:34;6.05;;;1.20;;
82412;SDS011;72056;51.980;15.436;2023-12-20T13:40:01;5.95;;;1.55;;
82412;SDS011;72056;51.980;15.436;2023-12-20T13:42:30;4.10;;;1.05;;
82412;SDS011;72056;51.980;15.436;2023-12-20T13:44:56;4.95;;;1.10;;
82412;SDS011;72056;51.980;15.436;2023-12-20T13:47:23;4.80;;;1.33;;
82412;SDS011;72056;51.980;15.436;2023-12-20T13:49:51;3.92;;;1.02;;
82412;SDS011;72056;51.980;15.436;2023-12-20T13:52:18;3.95;;;1.10;;
82412;SDS011;72056;51.980;15.436;2023-12-20T13:54:49;4.90;;;1.20;;
82412;SDS011;72056;51.980;15.436;2023-12-20T13:57:17;7.80;;;1.45;;
82412;SDS011;72056;51.980;15.436;2023-12-20T13:59:49;4.65;;;1.00;;
82412;SDS011;72056;51.980;15.436;2023-12-20T14:02:20;5.30;;;1.58;;
82412;SDS011;72056;51.980;15.436;2023-12-20T14:04:48;5.07;;;1.42;;
82412;SDS011;72056;51.980;15.436;2023-12-20T14:07:16;6.07;;;1.42;;
82412;SDS011;72056;51.980;15.436;2023-12-20T14:09:47;3.85;;;1.00;;
82412;SDS011;72056;51.980;15.436;2023-12-20T14:12:16;4.88;;;1.38;;
82412;SDS011;72056;51.980;15.436;2023-12-20T14:14:46;3.28;;;1.20;;
82412;SDS011;72056;51.980;15.436;2023-12-20T14:17:15;5.53;;;1.20;;
82412;SDS011;72056;51.980;15.436;2023-12-20T14:19:42;5.38;;;1.30;;
82412;SDS011;72056;51.980;15.436;2023-12-20T14:22:11;3.80;;;1.10;;
82412;SDS011;72056;51.980;15.436;2023-12-20T14:24:42;4.32;;;1.10;;
82412;SDS011;72056;51.980;15.436;2023-12-20T14:27:10;5.05;;;1.20;;
82412;SDS011;72056;51.980;15.436;2023-12-20T14:29:39;4.20;;;1.10;;
82412;SDS011;72056;51.980;15.436;2023-12-20T14:32:06;6.65;;;1.38;;
82412;SDS011;72056;51.980;15.436;2023-12-20T14:34:33;4.47;;;1.20;;
82412;SDS011;72056;51.980;15.436;2023-12-20T14:37:00;4.32;;;1.00;;
82412;SDS011;72056;51.980;15.436;2023-12-20T14:39:27;4.63;;;1.13;;
82412;SDS011;72056;51.980;15.436;2023-12-20T14:41:54;6.82;;;1.15;;
82412;SDS011;72056;51.980;15.436;2023-12-20T14:44:26;6.25;;;1.10;;
82412;SDS011;72056;51.980;15.436;2023-12-20T14:46:54;3.00;;;1.10;;
82412;SDS011;72056;51.980;15.436;2023-12-20T14:49:22;4.50;;;1.27;;